createdAt,value
2018-05-04T00:02:24.808Z,6.07
2018-05-04T00:05:28.109Z,6.02
2018-05-04T00:08:31.424Z,5.97
2018-05-04T00:11:34.729Z,5.91
2018-05-04T00:14:38.066Z,5.85
2018-05-04T00:17:42.134Z,5.80
2018-05-04T00:20:45.457Z,5.75
2018-05-04T00:23:48.757Z,5.76
2018-05-04T00:26:52.085Z,5.76
2018-05-04T00:29:55.385Z,5.74
2018-05-04T00:32:58.726Z,5.70
2018-05-04T00:36:02.035Z,5.65
2018-05-04T00:39:05.364Z,5.61
2018-05-04T00:42:09.433Z,5.53
2018-05-04T00:45:12.773Z,5.50
2018-05-04T00:48:16.851Z,5.46
2018-05-04T00:51:20.186Z,5.41
2018-05-04T00:54:24.258Z,5.38
2018-05-04T00:57:27.600Z,5.34
2018-05-04T01:00:30.942Z,5.25
2018-05-04T01:03:34.270Z,5.21
2018-05-04T01:06:37.582Z,5.17
2018-05-04T01:09:41.657Z,5.15
2018-05-04T01:12:44.957Z,5.15
2018-05-04T01:15:48.285Z,5.15
2018-05-04T01:18:52.366Z,5.18
2018-05-04T01:21:55.697Z,5.14
2018-05-04T01:24:59.761Z,5.12
2018-05-04T01:28:03.097Z,5.08
2018-05-04T01:31:06.393Z,5.01
2018-05-04T01:34:09.726Z,4.94
2018-05-04T01:37:13.034Z,4.85
2018-05-04T01:40:16.357Z,4.73
2018-05-04T01:43:19.667Z,4.68
2018-05-04T01:46:22.996Z,4.64
2018-05-04T01:49:27.065Z,4.59
2018-05-04T01:52:30.385Z,4.55
2018-05-04T01:55:35.610Z,4.54
2018-05-04T01:58:38.950Z,4.56
2018-05-04T02:01:43.025Z,4.56
2018-05-04T02:04:46.335Z,4.55
2018-05-04T02:07:49.723Z,4.57
2018-05-04T02:10:53.748Z,4.53
2018-05-04T02:13:57.057Z,4.47
2018-05-04T02:17:00.390Z,4.40
2018-05-04T02:20:03.690Z,4.32
2018-05-04T02:23:07.030Z,4.38
2018-05-04T02:26:10.342Z,4.39
2018-05-04T02:29:14.960Z,4.40
2018-05-04T02:32:18.262Z,4.39
2018-05-04T02:35:21.598Z,4.39
2018-05-04T02:38:24.906Z,4.39
2018-05-04T02:41:28.259Z,4.38
2018-05-04T02:44:31.573Z,4.38
2018-05-04T02:47:34.885Z,4.40
2018-05-04T02:50:38.229Z,4.39
2018-05-04T02:53:41.529Z,4.34
2018-05-04T02:56:44.859Z,4.31
2018-05-04T02:59:48.149Z,4.30
2018-05-04T03:02:51.522Z,4.29
2018-05-04T03:05:54.788Z,4.22
2018-05-04T03:08:58.109Z,4.18
2018-05-04T03:12:01.415Z,4.15
2018-05-04T03:15:04.740Z,4.17
2018-05-04T03:18:08.058Z,4.16
2018-05-04T03:21:11.381Z,4.16
2018-05-04T03:24:15.514Z,4.18
2018-05-04T03:27:18.900Z,4.17
2018-05-04T03:30:22.197Z,4.15
2018-05-04T03:33:25.517Z,4.12
2018-05-04T03:36:29.585Z,4.07
2018-05-04T03:39:32.947Z,4.05
2018-05-04T03:42:36.294Z,4.04
2018-05-04T03:45:39.605Z,4.00
2018-05-04T03:48:42.945Z,3.97
2018-05-04T03:51:46.272Z,3.91
2018-05-04T03:54:49.591Z,3.89
2018-05-04T03:58:10.334Z,3.85
2018-05-04T04:01:31.139Z,3.84
2018-05-04T04:04:34.463Z,3.83
2018-05-04T04:07:37.774Z,3.82
2018-05-04T04:10:41.110Z,3.85
2018-05-04T04:13:44.434Z,3.88
2018-05-04T04:16:47.795Z,3.90
2018-05-04T04:19:51.115Z,3.93
2018-05-04T04:22:54.433Z,3.97
2018-05-04T04:25:57.766Z,4.02
2018-05-04T04:29:01.075Z,4.11
2018-05-04T04:32:04.418Z,4.20
2018-05-04T04:35:07.727Z,4.30
2018-05-04T04:38:11.368Z,4.38
2018-05-04T04:41:14.702Z,4.46
2018-05-04T04:44:18.042Z,4.52
2018-05-04T04:47:21.362Z,4.60
2018-05-04T04:50:24.704Z,4.70
2018-05-04T04:53:28.027Z,4.80
2018-05-04T04:56:31.351Z,4.89
2018-05-04T04:59:34.674Z,4.98
2018-05-04T05:02:38.014Z,5.04
2018-05-04T05:05:41.314Z,5.12
2018-05-04T05:08:44.641Z,5.20
2018-05-04T05:11:47.967Z,5.27
2018-05-04T05:14:52.062Z,5.36
2018-05-04T05:17:55.361Z,5.45
2018-05-04T05:20:59.473Z,5.54
2018-05-04T05:24:02.801Z,5.65
2018-05-04T05:27:06.141Z,5.76
2018-05-04T05:30:09.446Z,5.88
2018-05-04T05:33:12.781Z,6.02
2018-05-04T05:36:16.103Z,6.18
2018-05-04T05:39:19.451Z,6.34
2018-05-04T05:42:22.862Z,6.52
2018-05-04T05:45:26.145Z,6.71
2018-05-04T05:48:29.457Z,6.87
2018-05-04T05:51:33.538Z,7.03
2018-05-04T05:54:36.923Z,7.19
2018-05-04T05:57:40.199Z,7.31
2018-05-04T06:00:43.514Z,7.40
2018-05-04T06:03:46.832Z,7.45
2018-05-04T06:06:50.144Z,7.54
2018-05-04T06:09:53.457Z,7.64
2018-05-04T06:12:57.581Z,7.73
2018-05-04T06:16:00.910Z,7.87
2018-05-04T06:19:04.249Z,8.01
2018-05-04T06:22:07.549Z,8.13
2018-05-04T06:25:10.967Z,8.23
2018-05-04T06:28:14.189Z,8.36
2018-05-04T06:31:17.518Z,8.50
2018-05-04T06:34:21.837Z,8.65
2018-05-04T06:37:25.166Z,8.78
2018-05-04T06:40:29.237Z,8.87
2018-05-04T06:43:32.557Z,8.99
2018-05-04T06:46:35.853Z,9.13
2018-05-04T06:49:39.186Z,9.28
2018-05-04T06:52:42.492Z,9.33
2018-05-04T06:55:45.807Z,9.35
2018-05-04T06:58:49.104Z,9.36
2018-05-04T07:01:52.416Z,9.36
2018-05-04T07:04:55.717Z,9.40
2018-05-04T07:07:59.046Z,9.47
2018-05-04T07:11:03.125Z,9.50
2018-05-04T07:14:06.452Z,9.52
2018-05-04T07:17:09.748Z,9.60
2018-05-04T07:20:13.060Z,9.68
2018-05-04T07:23:17.138Z,9.69
2018-05-04T07:26:20.473Z,9.73
2018-05-04T07:29:23.774Z,9.78
2018-05-04T07:32:27.085Z,9.91
2018-05-04T07:35:30.400Z,10.05
2018-05-04T07:38:33.698Z,10.21
2018-05-04T07:41:37.023Z,10.35
2018-05-04T07:44:40.341Z,10.51
2018-05-04T07:47:44.432Z,10.71
2018-05-04T07:50:47.737Z,10.91
2018-05-04T07:53:51.065Z,11.14
2018-05-04T07:56:54.382Z,11.37
2018-05-04T07:59:57.711Z,11.43
2018-05-04T08:03:01.046Z,11.42
2018-05-04T08:06:04.357Z,11.45
2018-05-04T08:09:07.665Z,11.49
2018-05-04T08:12:11.005Z,11.49
2018-05-04T08:15:14.318Z,11.62
2018-05-04T08:18:17.649Z,11.68
2018-05-04T08:21:20.965Z,11.81
2018-05-04T08:24:24.295Z,12.03
2018-05-04T08:27:27.640Z,12.22
2018-05-04T08:30:30.961Z,12.51
2018-05-04T08:33:34.287Z,12.56
2018-05-04T08:36:37.634Z,12.65
2018-05-04T08:39:40.950Z,12.79
2018-05-04T08:42:44.308Z,12.87
2018-05-04T08:45:47.623Z,12.96
2018-05-04T08:48:50.953Z,13.05
2018-05-04T08:51:54.274Z,13.16
2018-05-04T08:54:58.374Z,13.18
2018-05-04T08:58:01.701Z,13.30
2018-05-04T09:01:05.806Z,13.42
2018-05-04T09:04:09.920Z,13.47
2018-05-04T09:07:14.022Z,13.49
2018-05-04T09:10:17.336Z,13.55
2018-05-04T09:13:21.427Z,13.61
2018-05-04T09:16:24.783Z,13.64
2018-05-04T09:19:28.105Z,13.82
2018-05-04T09:22:31.458Z,13.88
2018-05-04T09:25:34.777Z,13.82
2018-05-04T09:28:38.097Z,13.77
2018-05-04T09:31:41.409Z,13.76
2018-05-04T09:34:44.740Z,13.93
2018-05-04T09:37:48.817Z,14.19
2018-05-04T09:40:52.171Z,14.17
2018-05-04T09:43:55.491Z,14.11
2018-05-04T09:46:58.821Z,14.11
2018-05-04T09:50:02.130Z,14.04
2018-05-04T09:53:06.223Z,14.15
2018-05-04T09:56:09.620Z,14.29
2018-05-04T09:59:13.658Z,14.36
2018-05-04T10:02:17.729Z,14.46
2018-05-04T10:05:21.063Z,14.48
2018-05-04T10:08:25.938Z,14.58
2018-05-04T10:11:29.258Z,14.63
2018-05-04T10:14:32.582Z,14.68
2018-05-04T10:17:35.886Z,14.35
2018-05-04T10:20:39.989Z,14.28
2018-05-04T10:23:43.317Z,14.28
2018-05-04T10:26:46.660Z,14.31
2018-05-04T10:29:49.972Z,14.41
2018-05-04T10:32:53.350Z,14.55
2018-05-04T10:35:56.656Z,14.63
2018-05-04T10:39:00.085Z,14.68
2018-05-04T10:42:03.289Z,14.57
2018-05-04T10:45:07.467Z,14.59
2018-05-04T10:48:11.472Z,14.67
2018-05-04T10:51:14.818Z,14.64
2018-05-04T10:54:18.896Z,14.72
2018-05-04T10:57:22.213Z,14.71
2018-05-04T11:00:26.192Z,14.73
2018-05-04T11:03:29.525Z,14.83
2018-05-04T11:06:32.829Z,14.96
2018-05-04T11:09:36.910Z,15.13
2018-05-04T11:12:40.209Z,15.23
2018-05-04T11:15:43.526Z,15.19
2018-05-04T11:18:46.826Z,15.21
2018-05-04T11:21:50.921Z,15.22
2018-05-04T11:24:54.225Z,15.19
2018-05-04T11:27:57.636Z,15.05
2018-05-04T11:31:00.932Z,15.10
2018-05-04T11:34:04.254Z,15.25
2018-05-04T11:37:07.561Z,15.33
2018-05-04T11:40:10.893Z,15.45
2018-05-04T11:43:14.198Z,15.37
2018-05-04T11:46:17.525Z,15.37
2018-05-04T11:49:22.571Z,15.26
2018-05-04T11:52:26.975Z,15.27
2018-05-04T11:55:31.069Z,15.30
2018-05-04T11:58:34.402Z,15.31
2018-05-04T12:01:37.816Z,15.42
2018-05-04T12:04:41.186Z,15.60
2018-05-04T12:07:45.274Z,15.70
2018-05-04T12:10:48.668Z,15.86
2018-05-04T12:13:51.955Z,15.80
2018-05-04T12:16:55.301Z,15.80
2018-05-04T12:19:59.398Z,15.79
2018-05-04T12:23:02.718Z,15.71
2018-05-04T12:26:06.022Z,15.64
2018-05-04T12:29:09.445Z,15.49
2018-05-04T12:32:12.752Z,15.50
2018-05-04T12:35:16.076Z,15.62
2018-05-04T12:38:19.379Z,15.59
2018-05-04T12:41:23.466Z,15.69
2018-05-04T12:44:26.766Z,15.90
2018-05-04T12:47:30.077Z,15.98
2018-05-04T12:50:33.372Z,16.00
2018-05-04T12:53:36.784Z,16.04
2018-05-04T12:56:40.031Z,16.05
2018-05-04T12:59:44.104Z,15.98
2018-05-04T13:02:48.193Z,15.92
2018-05-04T13:05:51.493Z,15.96
2018-05-04T13:08:54.806Z,16.12
2018-05-04T13:11:58.878Z,16.27
2018-05-04T13:15:02.198Z,16.28
2018-05-04T13:18:05.506Z,16.24
2018-05-04T13:21:08.834Z,16.25
2018-05-04T13:24:12.145Z,16.37
2018-05-04T13:27:15.482Z,16.38
2018-05-04T13:30:18.785Z,16.22
2018-05-04T13:33:22.127Z,16.08
2018-05-04T13:36:25.427Z,16.23
2018-05-04T13:39:28.757Z,16.33
2018-05-04T13:42:32.056Z,16.42
2018-05-04T13:45:35.394Z,16.53
2018-05-04T13:48:39.874Z,16.56
2018-05-04T13:51:42.797Z,16.49
2018-05-04T13:54:46.880Z,16.42
2018-05-04T13:57:50.278Z,16.47
2018-05-04T14:00:53.525Z,16.58
2018-05-04T14:03:56.882Z,16.71
2018-05-04T14:07:00.182Z,16.80
2018-05-04T14:10:03.538Z,16.88
2018-05-04T14:13:06.852Z,16.92
2018-05-04T14:16:10.219Z,17.00
2018-05-04T14:19:13.549Z,16.83
2018-05-04T14:22:16.868Z,16.51
2018-05-04T14:25:20.203Z,16.52
2018-05-04T14:28:23.513Z,16.61
2018-05-04T14:31:26.886Z,16.70
2018-05-04T14:34:30.962Z,16.75
2018-05-04T14:37:34.303Z,16.75
2018-05-04T14:40:37.641Z,16.93
2018-05-04T14:43:40.954Z,16.99
2018-05-04T14:46:44.287Z,17.03
2018-05-04T14:49:47.600Z,17.17
2018-05-04T14:52:50.917Z,17.35
2018-05-04T14:55:54.254Z,17.25
2018-05-04T14:58:57.553Z,17.28
2018-05-04T15:02:00.896Z,17.26
2018-05-04T15:05:04.202Z,17.27
2018-05-04T15:08:07.543Z,17.29
2018-05-04T15:11:11.622Z,17.28
2018-05-04T15:14:14.977Z,17.44
2018-05-04T15:17:18.361Z,17.58
2018-05-04T15:20:21.619Z,17.86
2018-05-04T15:23:24.921Z,17.89
2018-05-04T15:26:28.258Z,17.94
2018-05-04T15:29:32.338Z,17.95
2018-05-04T15:32:35.667Z,17.98
2018-05-04T15:35:39.729Z,18.16
2018-05-04T15:38:43.058Z,18.36
2018-05-04T15:41:46.360Z,18.46
2018-05-04T15:44:49.679Z,18.47
2018-05-04T15:47:52.996Z,18.68
2018-05-04T15:51:01.910Z,18.83
2018-05-04T15:54:05.213Z,19.17
2018-05-04T15:57:08.530Z,19.40
2018-05-04T16:00:11.852Z,19.58
2018-05-04T16:03:15.161Z,19.34
2018-05-04T16:06:18.468Z,19.25
2018-05-04T16:09:21.766Z,19.18
2018-05-04T16:12:25.896Z,19.16
2018-05-04T16:15:29.965Z,19.08
2018-05-04T16:18:33.300Z,18.90
2018-05-04T16:21:37.383Z,18.61
2018-05-04T16:24:40.704Z,18.23
2018-05-04T16:27:44.009Z,17.83
2018-05-04T16:30:47.343Z,17.45
2018-05-04T16:33:50.645Z,17.13
2018-05-04T16:36:53.946Z,16.91
2018-05-04T16:39:57.249Z,16.76
2018-05-04T16:43:00.593Z,16.62
2018-05-04T16:46:04.661Z,16.49
2018-05-04T16:52:41.577Z,16.35
2018-05-04T16:55:44.917Z,16.28
2018-05-04T16:58:48.226Z,16.23
2018-05-04T17:01:51.651Z,16.12
2018-05-04T17:04:54.957Z,16.02
2018-05-04T17:07:58.268Z,15.93
2018-05-04T17:11:01.577Z,15.88
2018-05-04T17:14:05.677Z,15.85
2018-05-04T17:17:08.981Z,15.86
2018-05-04T17:20:12.297Z,15.81
2018-05-04T17:23:16.373Z,15.79
2018-05-04T17:26:19.704Z,15.75
2018-05-04T17:29:23.774Z,15.69
2018-05-04T17:32:27.125Z,15.67
2018-05-04T17:35:30.430Z,15.60
2018-05-04T17:38:33.757Z,15.54
2018-05-04T17:41:37.052Z,15.44
2018-05-04T17:44:40.369Z,15.31
2018-05-04T17:47:43.668Z,15.20
2018-05-04T17:50:46.999Z,15.11
2018-05-04T17:53:51.077Z,15.05
2018-05-04T17:56:54.403Z,14.97
2018-05-04T17:59:58.521Z,14.91
2018-05-04T18:03:02.666Z,14.80
2018-05-04T18:06:05.951Z,14.68
2018-05-04T18:09:09.260Z,14.59
2018-05-04T18:12:12.634Z,14.52
2018-05-04T18:15:16.709Z,14.39
2018-05-04T18:18:20.024Z,14.25
2018-05-04T18:21:24.098Z,14.21
2018-05-04T18:24:27.424Z,14.15
2018-05-04T18:27:30.724Z,14.06
2018-05-04T18:30:34.056Z,13.98
2018-05-04T18:33:37.360Z,13.88
2018-05-04T18:36:40.672Z,13.85
2018-05-04T18:39:43.993Z,13.77
2018-05-04T18:42:47.301Z,13.67
2018-05-04T18:45:50.733Z,13.55
2018-05-04T18:48:54.805Z,13.49
2018-05-04T18:51:58.134Z,13.40
2018-05-04T18:55:02.202Z,13.31
2018-05-04T18:58:05.537Z,13.24
2018-05-04T19:01:09.604Z,13.19
2018-05-04T19:04:12.917Z,13.14
2018-05-04T19:07:16.985Z,13.05
2018-05-04T19:10:20.314Z,12.98
2018-05-04T19:13:23.617Z,12.93
2018-05-04T19:16:26.937Z,12.86
2018-05-04T19:19:30.239Z,12.74
2018-05-04T19:22:33.554Z,12.67
2018-05-04T19:25:37.617Z,12.59
2018-05-04T19:28:40.938Z,12.57
2018-05-04T19:31:44.241Z,12.53
2018-05-04T19:34:47.580Z,12.50
2018-05-04T19:37:50.888Z,12.42
2018-05-04T19:40:54.218Z,12.35
2018-05-04T19:43:57.525Z,12.28
2018-05-04T19:47:00.878Z,12.22
2018-05-04T19:50:04.200Z,12.16
2018-05-04T19:53:08.383Z,12.09
2018-05-04T19:56:11.689Z,12.02
2018-05-04T19:59:15.005Z,11.94
2018-05-04T20:02:18.310Z,11.85
2018-05-04T20:05:21.625Z,11.78
2018-05-04T20:08:24.949Z,11.71
2018-05-04T20:11:29.017Z,11.65
2018-05-04T20:14:32.352Z,11.57
2018-05-04T20:17:36.424Z,11.51
2018-05-04T20:20:39.750Z,11.45
2018-05-04T20:23:43.059Z,11.43
2018-05-04T20:26:46.405Z,11.40
2018-05-04T20:29:49.704Z,11.43
2018-05-04T20:32:53.033Z,11.35
2018-05-04T20:35:56.343Z,11.29
2018-05-04T20:39:00.424Z,11.25
2018-05-04T20:42:03.718Z,11.19
2018-05-04T20:45:07.037Z,11.20
2018-05-04T20:48:10.434Z,11.13
2018-05-04T20:51:13.758Z,11.06
2018-05-04T20:54:17.053Z,10.99
2018-05-04T20:57:21.128Z,10.90
2018-05-04T21:00:24.425Z,10.86
2018-05-04T21:03:27.743Z,10.82
2018-05-04T21:06:31.802Z,10.82
2018-05-04T21:09:35.122Z,10.79
2018-05-04T21:12:38.450Z,10.75
2018-05-04T21:15:42.532Z,10.69
2018-05-04T21:18:45.838Z,10.66
2018-05-04T21:21:49.152Z,10.63
2018-05-04T21:24:52.449Z,10.60
2018-05-04T21:27:55.754Z,10.53
2018-05-04T21:30:59.813Z,10.49
2018-05-04T21:34:03.137Z,10.46
2018-05-04T21:37:06.438Z,10.42
2018-05-04T21:40:09.746Z,10.37
2018-05-04T21:43:13.042Z,10.33
2018-05-04T21:46:16.362Z,10.31
2018-05-04T21:49:20.430Z,10.28
2018-05-04T21:52:23.740Z,10.27
2018-05-04T21:55:27.037Z,10.23
2018-05-04T21:58:30.366Z,10.21
2018-05-04T22:01:33.667Z,10.17
2018-05-04T22:04:37.003Z,10.11
2018-05-04T22:07:40.317Z,10.06
2018-05-04T22:10:43.613Z,10.00
2018-05-04T22:13:46.924Z,9.94
2018-05-04T22:16:50.216Z,9.88
2018-05-04T22:19:53.533Z,9.81
2018-05-04T22:22:57.594Z,9.76
2018-05-04T22:26:01.685Z,9.72
2018-05-04T22:29:04.977Z,9.66
2018-05-04T22:32:08.285Z,9.56
2018-05-04T22:35:11.578Z,9.46
2018-05-04T22:38:14.901Z,9.41
2018-05-04T22:41:18.206Z,9.34
2018-05-04T22:44:22.302Z,9.25
2018-05-04T22:47:25.601Z,9.17
2018-05-04T22:50:28.924Z,9.12
2018-05-04T22:53:32.217Z,9.06
2018-05-04T22:56:35.625Z,8.98
2018-05-04T22:59:38.861Z,8.88
2018-05-04T23:02:42.174Z,8.82
2018-05-04T23:05:45.464Z,8.77
2018-05-04T23:08:48.768Z,8.75
2018-05-04T23:11:52.069Z,8.73
2018-05-04T23:14:55.369Z,8.73
2018-05-04T23:17:58.681Z,8.72
2018-05-04T23:21:02.018Z,8.67
2018-05-04T23:24:05.317Z,8.65
2018-05-04T23:27:09.373Z,8.62
2018-05-04T23:30:12.696Z,8.59
2018-05-04T23:33:15.984Z,8.57
2018-05-04T23:36:19.309Z,8.56
2018-05-04T23:39:23.360Z,8.50
2018-05-04T23:42:26.673Z,8.44
2018-05-04T23:45:29.964Z,8.42
2018-05-04T23:48:33.279Z,8.39
2018-05-04T23:51:36.568Z,8.37
2018-05-04T23:54:39.880Z,8.33
2018-05-04T23:57:43.172Z,8.30
